Wetterdaten: Woche 28.08.17 - 03.09.17 (KW35)
Datum Zeit Temperatur Luftfeuchte Luftdruck Niederschlag Windrichtung Sonnenschein Solar Wind
28.08.2017 00:00 17,1 C 97 % 1015,6 hPa 0,0 l/m N 0,00 h 0 W/m 0,0 km/h (0 Bft)
28.08.2017 01:00 17,3 C 97 % 1015,5 hPa 0,0 l/m N 0,00 h 0 W/m 0,8 km/h (0 Bft)
28.08.2017 02:00 17,2 C 97 % 1015,3 hPa 0,0 l/m N 0,00 h 0 W/m 0,0 km/h (0 Bft)
28.08.2017 03:00 16,7 C 98 % 1015,2 hPa 0,0 l/m N 0,00 h 0 W/m 0,0 km/h (0 Bft)
28.08.2017 04:00 16,2 C 98 % 1014,9 hPa 0,0 l/m N 0,00 h 0 W/m 0,0 km/h (0 Bft)
28.08.2017 05:00 15,6 C 98 % 1014,6 hPa 0,0 l/m N 0,00 h 0 W/m 0,0 km/h (0 Bft)
28.08.2017 06:00 15,3 C 98 % 1014,7 hPa 0,0 l/m N 0,00 h 9 W/m 0,4 km/h (0 Bft)
28.08.2017 07:00 15,4 C 99 % 1015,0 hPa 0,0 l/m N 0,00 h 49 W/m 0,7 km/h (0 Bft)
28.08.2017 08:00 16,2 C 99 % 1015,1 hPa 0,0 l/m N 0,00 h 126 W/m 0,0 km/h (0 Bft)
28.08.2017 09:00 17,2 C 99 % 1015,4 hPa 0,0 l/m N 0,00 h 202 W/m 4,3 km/h (1 Bft)
28.08.2017 10:00 19,0 C 95 % 1015,6 hPa 0,0 l/m NO 0,67 h 386 W/m 2,7 km/h (1 Bft)
28.08.2017 11:00 21,6 C 83 % 1015,6 hPa 0,0 l/m O-NO 1,00 h 620 W/m 5,5 km/h (1 Bft)
28.08.2017 12:00 23,9 C 75 % 1015,4 hPa 0,0 l/m O-NO 1,00 h 698 W/m 5,6 km/h (1 Bft)
28.08.2017 13:00 25,3 C 70 % 1015,2 hPa 0,0 l/m O-NO 0,92 h 660 W/m 7,2 km/h (2 Bft)
28.08.2017 14:00 26,3 C 65 % 1014,8 hPa 0,0 l/m O 0,92 h 669 W/m 8,6 km/h (2 Bft)
28.08.2017 15:00 26,7 C 63 % 1014,4 hPa 0,0 l/m NO 0,75 h 524 W/m 9,9 km/h (2 Bft)
28.08.2017 16:00 27,1 C 61 % 1014,0 hPa 0,0 l/m O-NO 0,92 h 488 W/m 10,1 km/h (2 Bft)
28.08.2017 17:00 26,9 C 60 % 1013,9 hPa 0,0 l/m N-NO 1,00 h 328 W/m 9,0 km/h (2 Bft)
28.08.2017 18:00 26,2 C 61 % 1013,7 hPa 0,0 l/m O-NO 0,67 h 156 W/m 7,6 km/h (2 Bft)
28.08.2017 19:00 24,5 C 68 % 1013,7 hPa 0,0 l/m O-NO 0,00 h 37 W/m 3,3 km/h (1 Bft)
28.08.2017 20:00 21,4 C 81 % 1014,0 hPa 0,0 l/m N 0,00 h 6 W/m 0,3 km/h (0 Bft)
28.08.2017 21:00 19,5 C 88 % 1014,6 hPa 0,0 l/m N 0,00 h 0 W/m 0,0 km/h (0 Bft)
28.08.2017 22:00 18,5 C 91 % 1015,0 hPa 0,0 l/m N 0,00 h 0 W/m 0,0 km/h (0 Bft)
28.08.2017 23:00 17,8 C 93 % 1014,9 hPa 0,0 l/m N 0,00 h 0 W/m 0,0 km/h (0 Bft)
29.08.2017 00:00 17,3 C 94 % 1014,7 hPa 0,0 l/m N 0,00 h 0 W/m 0,1 km/h (0 Bft)
29.08.2017 01:00 16,7 C 95 % 1014,6 hPa 0,0 l/m O-NO 0,00 h 0 W/m 0,8 km/h (0 Bft)
29.08.2017 02:00 16,4 C 95 % 1014,5 hPa 0,0 l/m O-NO 0,00 h 0 W/m 3,3 km/h (1 Bft)
29.08.2017 03:00 16,1 C 96 % 1014,2 hPa 0,0 l/m N 0,00 h 0 W/m 0,3 km/h (0 Bft)
29.08.2017 04:00 15,4 C 97 % 1013,7 hPa 0,0 l/m N 0,00 h 0 W/m 0,0 km/h (0 Bft)
29.08.2017 05:00 15,0 C 98 % 1013,5 hPa 0,0 l/m N 0,00 h 0 W/m 0,0 km/h (0 Bft)
29.08.2017 06:00 14,8 C 98 % 1013,5 hPa 0,0 l/m N 0,00 h 10 W/m 0,0 km/h (0 Bft)
29.08.2017 07:00 15,0 C 98 % 1013,7 hPa 0,0 l/m N 0,25 h 78 W/m 1,1 km/h (0 Bft)
29.08.2017 08:00 16,2 C 97 % 1013,6 hPa 0,0 l/m O-NO 0,75 h 200 W/m 3,9 km/h (1 Bft)
29.08.2017 09:00 18,6 C 91 % 1013,7 hPa 0,0 l/m O-NO 0,92 h 372 W/m 4,7 km/h (1 Bft)
29.08.2017 10:00 21,4 C 83 % 1013,6 hPa 0,0 l/m O-NO 0,92 h 506 W/m 7,1 km/h (2 Bft)
29.08.2017 11:00 23,4 C 74 % 1013,5 hPa 0,0 l/m O 1,00 h 671 W/m 8,1 km/h (2 Bft)
29.08.2017 12:00 25,6 C 65 % 1013,0 hPa 0,0 l/m O 1,00 h 746 W/m 10,3 km/h (2 Bft)
29.08.2017 13:00 27,0 C 56 % 1012,7 hPa 0,0 l/m O-SO 1,00 h 718 W/m 8,6 km/h (2 Bft)
29.08.2017 14:00 28,0 C 51 % 1012,2 hPa 0,0 l/m NO 1,00 h 719 W/m 8,2 km/h (2 Bft)
29.08.2017 15:00 28,6 C 47 % 1011,6 hPa 0,0 l/m O-SO 1,00 h 583 W/m 7,8 km/h (2 Bft)
29.08.2017 16:00 28,8 C 46 % 1011,3 hPa 0,0 l/m O 1,00 h 509 W/m 8,0 km/h (2 Bft)
29.08.2017 17:00 28,3 C 46 % 1011,0 hPa 0,0 l/m O 1,00 h 320 W/m 4,7 km/h (1 Bft)
29.08.2017 18:00 27,9 C 48 % 1010,7 hPa 0,0 l/m O 0,83 h 171 W/m 6,7 km/h (2 Bft)
29.08.2017 19:00 25,0 C 62 % 1010,6 hPa 0,0 l/m O 0,00 h 32 W/m 2,9 km/h (1 Bft)
29.08.2017 20:00 20,9 C 78 % 1010,9 hPa 0,0 l/m N 0,00 h 0 W/m 0,0 km/h (0 Bft)
29.08.2017 21:00 19,3 C 83 % 1011,3 hPa 0,0 l/m N 0,00 h 0 W/m 0,0 km/h (0 Bft)
29.08.2017 22:00 18,6 C 83 % 1011,3 hPa 0,0 l/m N 0,00 h 0 W/m 0,0 km/h (0 Bft)
29.08.2017 23:00 17,7 C 85 % 1011,4 hPa 0,0 l/m N 0,00 h 0 W/m 0,0 km/h (0 Bft)
30.08.2017 00:00 17,1 C 87 % 1011,4 hPa 0,0 l/m N 0,00 h 0 W/m 0,3 km/h (0 Bft)
30.08.2017 01:00 16,7 C 89 % 1011,4 hPa 0,0 l/m N 0,00 h 0 W/m 0,0 km/h (0 Bft)
30.08.2017 02:00 15,6 C 92 % 1011,2 hPa 0,0 l/m N 0,00 h 0 W/m 0,0 km/h (0 Bft)
30.08.2017 03:00 15,0 C 94 % 1010,9 hPa 0,0 l/m N 0,00 h 0 W/m 0,0 km/h (0 Bft)
30.08.2017 04:00 14,6 C 95 % 1010,6 hPa 0,0 l/m N 0,00 h 0 W/m 0,0 km/h (0 Bft)
30.08.2017 05:00 14,2 C 96 % 1010,3 hPa 0,0 l/m N 0,00 h 0 W/m 0,0 km/h (0 Bft)
30.08.2017 06:00 14,0 C 97 % 1010,3 hPa 0,0 l/m N 0,17 h 13 W/m 0,0 km/h (0 Bft)
30.08.2017 07:00 14,7 C 97 % 1010,5 hPa 0,0 l/m N 1,00 h 91 W/m 0,0 km/h (0 Bft)
30.08.2017 08:00 17,4 C 91 % 1010,3 hPa 0,0 l/m N 0,83 h 229 W/m 0,1 km/h (0 Bft)
30.08.2017 09:00 20,1 C 82 % 1010,3 hPa 0,0 l/m O 1,00 h 354 W/m 4,0 km/h (1 Bft)
30.08.2017 10:00 22,6 C 73 % 1010,6 hPa 0,0 l/m S-SW 0,92 h 451 W/m 10,2 km/h (2 Bft)
30.08.2017 11:00 24,9 C 68 % 1010,3 hPa 0,0 l/m S 1,00 h 607 W/m 8,2 km/h (2 Bft)
30.08.2017 12:00 27,0 C 64 % 1009,9 hPa 0,0 l/m S-SW 1,00 h 708 W/m 12,5 km/h (3 Bft)
30.08.2017 13:00 27,9 C 60 % 1009,5 hPa 0,0 l/m W-SW 0,75 h 477 W/m 10,3 km/h (2 Bft)
30.08.2017 14:00 28,7 C 60 % 1009,1 hPa 0,0 l/m SW 1,00 h 633 W/m 9,0 km/h (2 Bft)
30.08.2017 15:00 29,9 C 50 % 1008,3 hPa 0,0 l/m S-SW 1,00 h 594 W/m 11,7 km/h (2 Bft)
30.08.2017 16:00 30,1 C 46 % 1007,7 hPa 0,0 l/m W 1,00 h 475 W/m 13,4 km/h (3 Bft)
30.08.2017 17:00 29,5 C 49 % 1007,3 hPa 0,0 l/m SW 0,75 h 278 W/m 9,5 km/h (2 Bft)
30.08.2017 18:00 27,2 C 62 % 1007,1 hPa 0,0 l/m N 0,00 h 109 W/m 0,3 km/h (0 Bft)
30.08.2017 19:00 24,4 C 75 % 1007,1 hPa 0,0 l/m N 0,00 h 22 W/m 0,0 km/h (0 Bft)
30.08.2017 20:00 23,3 C 77 % 1007,2 hPa 0,0 l/m N 0,00 h 0 W/m 0,3 km/h (0 Bft)
30.08.2017 21:00 22,4 C 80 % 1007,2 hPa 0,0 l/m W-SW 0,00 h 0 W/m 0,9 km/h (0 Bft)
30.08.2017 22:00 22,4 C 77 % 1007,6 hPa 0,0 l/m W-SW 0,00 h 0 W/m 2,3 km/h (1 Bft)
30.08.2017 23:00 21,6 C 83 % 1009,0 hPa 0,6 l/m W-NW 0,00 h 0 W/m 18,8 km/h (3 Bft)
31.08.2017 00:00 19,6 C 93 % 1009,5 hPa 0,0 l/m NW 0,00 h 0 W/m 8,4 km/h (2 Bft)
31.08.2017 01:00 19,3 C 94 % 1009,9 hPa 0,8 l/m W-SW 0,00 h 0 W/m 8,3 km/h (2 Bft)
31.08.2017 02:00 18,8 C 95 % 1009,6 hPa 0,2 l/m N 0,00 h 0 W/m 0,4 km/h (0 Bft)
31.08.2017 03:00 18,4 C 96 % 1009,4 hPa 0,0 l/m N 0,00 h 0 W/m 0,3 km/h (0 Bft)
31.08.2017 04:00 17,7 C 97 % 1009,0 hPa 0,0 l/m N 0,00 h 0 W/m 0,4 km/h (0 Bft)
31.08.2017 05:00 17,8 C 97 % 1008,6 hPa 0,0 l/m N 0,00 h 0 W/m 0,3 km/h (0 Bft)
31.08.2017 06:00 17,8 C 98 % 1008,3 hPa 0,0 l/m W 0,08 h 12 W/m 5,0 km/h (1 Bft)
31.08.2017 07:00 18,0 C 98 % 1008,5 hPa 0,6 l/m SW 0,00 h 24 W/m 3,2 km/h (1 Bft)
31.08.2017 08:00 18,3 C 98 % 1009,6 hPa 0,0 l/m SW 0,00 h 62 W/m 2,7 km/h (1 Bft)
31.08.2017 09:00 18,6 C 96 % 1010,2 hPa 2,6 l/m W-NW 0,08 h 126 W/m 8,2 km/h (2 Bft)
31.08.2017 10:00 17,2 C 96 % 1011,5 hPa 12,0 l/m W-NW 0,00 h 62 W/m 3,5 km/h (1 Bft)
31.08.2017 11:00 17,2 C 98 % 1012,4 hPa 1,4 l/m SW 0,00 h 68 W/m 4,2 km/h (1 Bft)
31.08.2017 12:00 16,8 C 98 % 1013,4 hPa 3,0 l/m W 0,00 h 89 W/m 7,9 km/h (2 Bft)
31.08.2017 13:00 16,5 C 97 % 1013,8 hPa 3,6 l/m SW 0,00 h 61 W/m 5,4 km/h (1 Bft)
31.08.2017 14:00 15,9 C 98 % 1014,4 hPa 4,0 l/m SW 0,00 h 59 W/m 10,9 km/h (2 Bft)
31.08.2017 15:00 15,4 C 98 % 1014,9 hPa 1,2 l/m W 0,00 h 66 W/m 2,5 km/h (1 Bft)
31.08.2017 16:00 15,1 C 98 % 1015,3 hPa 3,2 l/m N-NW 0,00 h 57 W/m 7,8 km/h (2 Bft)
31.08.2017 17:00 14,7 C 98 % 1015,6 hPa 4,6 l/m N-NW 0,00 h 55 W/m 2,4 km/h (1 Bft)
31.08.2017 18:00 14,5 C 98 % 1015,9 hPa 0,8 l/m N-NW 0,00 h 39 W/m 4,0 km/h (1 Bft)
31.08.2017 19:00 14,1 C 98 % 1016,3 hPa 2,8 l/m N 0,00 h 9 W/m 1,5 km/h (1 Bft)
31.08.2017 20:00 13,7 C 98 % 1016,9 hPa 4,6 l/m N 0,00 h 0 W/m 1,9 km/h (1 Bft)
31.08.2017 21:00 13,1 C 98 % 1017,4 hPa 6,8 l/m N-NO 0,00 h 0 W/m 7,9 km/h (2 Bft)
31.08.2017 22:00 12,5 C 98 % 1017,8 hPa 4,8 l/m N-NO 0,00 h 0 W/m 6,9 km/h (2 Bft)
31.08.2017 23:00 12,3 C 98 % 1018,0 hPa 2,4 l/m N 0,00 h 0 W/m 0,9 km/h (0 Bft)
01.09.2017 00:00 12,4 C 98 % 1018,1 hPa 2,8 l/m N 0,00 h 0 W/m 0,0 km/h (0 Bft)
01.09.2017 01:00 12,4 C 99 % 1017,9 hPa 2,0 l/m N 0,00 h 0 W/m 0,0 km/h (0 Bft)
01.09.2017 02:00 12,4 C 99 % 1017,3 hPa 0,4 l/m N 0,00 h 0 W/m 0,0 km/h (0 Bft)
01.09.2017 03:00 12,4 C 99 % 1016,8 hPa 0,2 l/m N 0,00 h 0 W/m 0,8 km/h (0 Bft)
01.09.2017 04:00 12,5 C 99 % 1016,7 hPa 1,2 l/m N-NO 0,00 h 0 W/m 1,2 km/h (1 Bft)
01.09.2017 05:00 12,4 C 99 % 1016,5 hPa 2,8 l/m N 0,00 h 0 W/m 2,0 km/h (1 Bft)
01.09.2017 06:00 12,4 C 99 % 1016,6 hPa 4,0 l/m N 0,00 h 0 W/m 1,7 km/h (1 Bft)
01.09.2017 07:00 12,4 C 99 % 1016,6 hPa 3,0 l/m N-NO 0,00 h 11 W/m 2,3 km/h (1 Bft)
01.09.2017 08:00 12,4 C 99 % 1016,5 hPa 1,0 l/m N-NO 0,00 h 25 W/m 3,9 km/h (1 Bft)
01.09.2017 09:00 12,3 C 99 % 1016,8 hPa 2,4 l/m N-NO 0,00 h 32 W/m 1,9 km/h (1 Bft)
01.09.2017 10:00 12,4 C 99 % 1016,9 hPa 1,8 l/m N-NO 0,00 h 86 W/m 8,0 km/h (2 Bft)
01.09.2017 11:00 12,7 C 99 % 1016,8 hPa 0,2 l/m N 0,00 h 114 W/m 8,3 km/h (2 Bft)
01.09.2017 12:00 13,0 C 99 % 1016,5 hPa 0,6 l/m N-NO 0,00 h 177 W/m 10,1 km/h (2 Bft)
01.09.2017 13:00 13,4 C 98 % 1016,3 hPa 0,0 l/m NO 0,00 h 220 W/m 9,5 km/h (2 Bft)
01.09.2017 14:00 13,2 C 97 % 1016,2 hPa 2,6 l/m NO 0,00 h 156 W/m 8,2 km/h (2 Bft)
01.09.2017 15:00 13,6 C 96 % 1015,7 hPa 0,2 l/m NO 0,17 h 318 W/m 3,5 km/h (1 Bft)
01.09.2017 16:00 14,6 C 93 % 1015,3 hPa 0,0 l/m N-NO 0,25 h 254 W/m 12,2 km/h (2 Bft)
01.09.2017 17:00 13,5 C 94 % 1015,6 hPa 0,0 l/m N-NO 0,00 h 85 W/m 10,5 km/h (2 Bft)
01.09.2017 18:00 13,0 C 96 % 1015,6 hPa 0,2 l/m N 0,00 h 51 W/m 8,0 km/h (2 Bft)
01.09.2017 19:00 12,7 C 96 % 1015,7 hPa 0,0 l/m N-NO 0,00 h 18 W/m 14,0 km/h (3 Bft)
01.09.2017 20:00 12,1 C 96 % 1016,0 hPa 0,0 l/m NO 0,00 h 0 W/m 12,1 km/h (2 Bft)
01.09.2017 21:00 11,8 C 96 % 1015,8 hPa 0,0 l/m NO 0,00 h 0 W/m 7,2 km/h (2 Bft)
01.09.2017 22:00 11,9 C 97 % 1015,8 hPa 0,0 l/m N 0,00 h 0 W/m 0,0 km/h (0 Bft)
01.09.2017 23:00 11,9 C 97 % 1015,9 hPa 0,0 l/m NO 0,00 h 0 W/m 3,1 km/h (1 Bft)
02.09.2017 00:00 11,7 C 98 % 1015,7 hPa 0,0 l/m N-NO 0,00 h 0 W/m 7,2 km/h (2 Bft)
02.09.2017 01:00 11,6 C 98 % 1015,7 hPa 0,0 l/m N 0,00 h 0 W/m 7,6 km/h (2 Bft)
02.09.2017 02:00 11,4 C 98 % 1015,4 hPa 0,2 l/m N-NO 0,00 h 0 W/m 9,5 km/h (2 Bft)
02.09.2017 03:00 11,3 C 98 % 1015,1 hPa 0,0 l/m N-NO 0,00 h 0 W/m 5,7 km/h (1 Bft)
02.09.2017 04:00 11,1 C 97 % 1015,2 hPa 0,2 l/m N 0,00 h 0 W/m 5,6 km/h (1 Bft)
02.09.2017 05:00 10,9 C 98 % 1015,1 hPa 0,0 l/m N 0,00 h 0 W/m 1,7 km/h (1 Bft)
02.09.2017 06:00 10,9 C 98 % 1015,1 hPa 0,0 l/m N 0,00 h 0 W/m 6,3 km/h (2 Bft)
02.09.2017 07:00 10,8 C 98 % 1015,1 hPa 0,0 l/m N-NO 0,00 h 15 W/m 8,2 km/h (2 Bft)
02.09.2017 08:00 10,8 C 97 % 1015,3 hPa 0,0 l/m N-NO 0,00 h 64 W/m 9,8 km/h (2 Bft)
02.09.2017 09:00 11,2 C 96 % 1015,7 hPa 0,0 l/m N-NO 0,00 h 88 W/m 6,4 km/h (2 Bft)
02.09.2017 10:00 11,5 C 94 % 1015,9 hPa 0,0 l/m NO 0,00 h 125 W/m 6,4 km/h (2 Bft)
02.09.2017 11:00 11,8 C 92 % 1015,8 hPa 0,0 l/m NO 0,00 h 112 W/m 7,2 km/h (2 Bft)
02.09.2017 12:00 12,3 C 87 % 1016,1 hPa 0,0 l/m NO 0,00 h 213 W/m 7,5 km/h (2 Bft)
02.09.2017 13:00 12,8 C 83 % 1016,2 hPa 0,0 l/m O-NO 0,00 h 273 W/m 8,8 km/h (2 Bft)
02.09.2017 14:00 13,3 C 80 % 1016,0 hPa 0,0 l/m O-NO 0,00 h 304 W/m 7,3 km/h (2 Bft)
02.09.2017 15:00 13,8 C 76 % 1015,6 hPa 0,0 l/m NO 0,08 h 333 W/m 8,7 km/h (2 Bft)
02.09.2017 16:00 14,4 C 72 % 1015,1 hPa 0,0 l/m NO 0,75 h 319 W/m 8,6 km/h (2 Bft)
02.09.2017 17:00 14,7 C 71 % 1015,0 hPa 0,0 l/m O-NO 0,33 h 231 W/m 8,0 km/h (2 Bft)
02.09.2017 18:00 14,1 C 73 % 1015,0 hPa 0,0 l/m O-NO 0,67 h 155 W/m 5,9 km/h (2 Bft)
02.09.2017 19:00 13,4 C 80 % 1015,3 hPa 0,0 l/m O-NO 0,25 h 34 W/m 0,5 km/h (0 Bft)
02.09.2017 20:00 12,0 C 89 % 1015,8 hPa 0,0 l/m O 0,00 h 7 W/m 4,8 km/h (1 Bft)
02.09.2017 21:00 10,9 C 88 % 1016,3 hPa 0,0 l/m N 0,00 h 0 W/m 2,3 km/h (1 Bft)
02.09.2017 22:00 10,6 C 91 % 1016,3 hPa 0,0 l/m N 0,00 h 0 W/m 0,0 km/h (0 Bft)
02.09.2017 23:00 10,0 C 93 % 1016,4 hPa 0,0 l/m N 0,00 h 0 W/m 0,0 km/h (0 Bft)
03.09.2017 00:00 10,0 C 95 % 1016,5 hPa 0,0 l/m N 0,00 h 0 W/m 1,9 km/h (1 Bft)
03.09.2017 01:00 10,2 C 94 % 1016,4 hPa 0,0 l/m N 0,00 h 0 W/m 0,3 km/h (0 Bft)
03.09.2017 02:00 9,9 C 94 % 1016,1 hPa 0,0 l/m N 0,00 h 0 W/m 0,0 km/h (0 Bft)
03.09.2017 03:00 9,5 C 96 % 1016,1 hPa 0,0 l/m N 0,00 h 0 W/m 0,0 km/h (0 Bft)
03.09.2017 04:00 8,9 C 97 % 1016,2 hPa 0,0 l/m N 0,00 h 0 W/m 0,0 km/h (0 Bft)
03.09.2017 05:00 8,6 C 98 % 1016,0 hPa 0,0 l/m N 0,00 h 0 W/m 0,0 km/h (0 Bft)
03.09.2017 06:00 8,8 C 98 % 1015,9 hPa 0,0 l/m N 0,00 h 6 W/m 0,0 km/h (0 Bft)
03.09.2017 07:00 8,5 C 98 % 1016,2 hPa 0,0 l/m N 0,00 h 22 W/m 1,5 km/h (1 Bft)
03.09.2017 08:00 8,2 C 98 % 1016,5 hPa 0,0 l/m N 0,00 h 54 W/m 7,0 km/h (2 Bft)
03.09.2017 09:00 8,8 C 98 % 1016,7 hPa 0,0 l/m N 0,00 h 149 W/m 2,5 km/h (1 Bft)
03.09.2017 10:00 9,8 C 96 % 1016,7 hPa 0,0 l/m N 0,17 h 265 W/m 5,7 km/h (1 Bft)
03.09.2017 11:00 11,7 C 92 % 1016,5 hPa 0,0 l/m SW 0,83 h 606 W/m 9,5 km/h (2 Bft)
03.09.2017 12:00 14,9 C 77 % 1015,9 hPa 0,0 l/m S-SO 1,00 h 860 W/m 11,0 km/h (2 Bft)
03.09.2017 13:00 15,4 C 71 % 1015,5 hPa 0,0 l/m W-SW 0,42 h 433 W/m 10,2 km/h (2 Bft)
03.09.2017 14:00 15,0 C 69 % 1015,0 hPa 0,0 l/m W-SW 0,08 h 241 W/m 4,3 km/h (1 Bft)
03.09.2017 15:00 15,3 C 71 % 1014,5 hPa 0,0 l/m W-NW 0,17 h 288 W/m 10,6 km/h (2 Bft)
03.09.2017 16:00 15,1 C 75 % 1014,3 hPa 0,0 l/m NW 0,33 h 302 W/m 8,0 km/h (2 Bft)
03.09.2017 17:00 16,0 C 68 % 1014,1 hPa 0,0 l/m NW 0,75 h 287 W/m 6,3 km/h (2 Bft)
03.09.2017 18:00 14,6 C 77 % 1014,0 hPa 0,0 l/m NW 0,50 h 116 W/m 2,4 km/h (1 Bft)
03.09.2017 19:00 13,8 C 81 % 1013,7 hPa 0,0 l/m N 0,08 h 28 W/m 0,0 km/h (0 Bft)
03.09.2017 20:00 11,1 C 91 % 1014,0 hPa 0,0 l/m N 0,00 h 0 W/m 0,0 km/h (0 Bft)
03.09.2017 21:00 9,9 C 95 % 1014,1 hPa 0,0 l/m N 0,00 h 0 W/m 0,0 km/h (0 Bft)
03.09.2017 22:00 9,3 C 96 % 1014,2 hPa 0,0 l/m N 0,00 h 0 W/m 0,0 km/h (0 Bft)
03.09.2017 23:00 8,7 C 97 % 1014,4 hPa 0,0 l/m N 0,00 h 0 W/m 0,0 km/h (0 Bft)
Min-Datum _ 03.09.17 30.08.17 30.08.17 - - - - 28.08.17
_ Min-Zeit 08:45 15:50 18:45 - - - - 00:00
Minimum _ 8,0 C 43 % 1006,9 hPa - - - - 0,0 km/h (0 Bft)
Max-Datum _ 30.08.17 28.08.17 01.09.17 31.08.17 - 28.08.17 03.09.17 30.08.17
_ Max-Zeit 15:40 03:05 00:00 10:05 - 10:00 13:05 23:20
Maximum _ 30,5 C 100 % 1018,3 hPa 12,0 l/m - 0,08 h 923 W/m 29,0 km/h
W (5 Bft)
Durchschnitt _ 16,5 C 87 % 1013,9 hPa #85,8 l/m NO #35:55 h 244 W/m 4,4 km/h (1 Bft)